Time;durP1;ratioP1;P1;durP2;ratioP2;P2;SDS_P1;SDS_P2;PMS_P1;PMS_P2;Temp;Humidity;BMP_temperature;BMP_pressure;BME280_temperature;BME280_humidity;BME280_pressure;Samples;Min_cycle;Max_cycle;Signal;HPM_P1;HPM_P2
2022/01/22 00:00:41;;;;;;;28.90;9.23;;;;;;;-3.93;57.41;95736.22;5106565;28;20023;-77
2022/01/22 00:03:07;;;;;;;22.27;8.48;;;;;;;-3.82;57.29;95725.16;5106008;28;20024;-76
2022/01/22 00:05:32;;;;;;;24.10;8.48;;;;;;;-3.89;57.32;95724.63;5089615;28;20031;-76
2022/01/22 00:07:58;;;;;;;17.83;7.72;;;;;;;-3.80;57.45;95724.16;5088648;28;20028;-77
2022/01/22 00:10:24;;;;;;;14.77;6.00;;;;;;;-3.79;57.01;95725.00;5107971;28;20425;-77
2022/01/22 00:15:16;;;;;;;19.25;6.03;;;;;;;-3.85;57.38;95721.78;5106746;28;20482;-76
2022/01/22 00:17:42;;;;;;;12.57;6.50;;;;;;;-3.83;57.54;95728.69;5106170;28;20034;-79
2022/01/22 00:20:08;;;;;;;18.42;5.55;;;;;;;-3.83;56.97;95726.94;5106941;28;20023;-76
2022/01/22 00:22:35;;;;;;;13.60;4.95;;;;;;;-3.74;56.71;95725.63;5089510;28;20036;-76
2022/01/22 00:25:02;;;;;;;13.13;5.85;;;;;;;-3.69;57.02;95720.94;5105412;28;20019;-77
2022/01/22 00:27:28;;;;;;;12.85;5.93;;;;;;;-3.65;57.13;95714.63;5107421;28;20098;-76
2022/01/22 00:29:53;;;;;;;19.23;5.43;;;;;;;-3.62;57.30;95711.84;5105289;28;20031;-77
2022/01/22 00:32:19;;;;;;;17.33;5.43;;;;;;;-3.66;57.33;95718.16;5106269;28;20057;-76
2022/01/22 00:34:44;;;;;;;16.65;5.85;;;;;;;-3.59;56.83;95716.06;5105565;28;20035;-77
2022/01/22 00:37:10;;;;;;;17.42;5.75;;;;;;;-3.53;56.59;95720.97;5105576;28;20023;-76
2022/01/22 00:39:35;;;;;;;13.30;5.70;;;;;;;-3.58;57.17;95727.41;5088908;28;20027;-78
2022/01/22 00:42:02;;;;;;;15.10;5.70;;;;;;;-3.66;57.36;95727.81;5071104;28;20036;-77
2022/01/22 00:44:28;;;;;;;11.90;5.00;;;;;;;-3.70;57.20;95723.66;5089098;28;20553;-77
2022/01/22 00:46:53;;;;;;;15.63;6.35;;;;;;;-3.75;57.03;95723.91;5087814;28;20027;-77
2022/01/22 00:49:19;;;;;;;11.13;5.30;;;;;;;-3.83;57.21;95724.31;5105820;28;20038;-77
2022/01/22 00:51:45;;;;;;;9.55;4.57;;;;;;;-3.95;57.04;95717.97;5106592;28;20141;-77
2022/01/22 00:54:10;;;;;;;10.85;5.40;;;;;;;-4.05;57.62;95724.59;5105753;28;20032;-77
2022/01/22 00:56:35;;;;;;;9.55;4.20;;;;;;;-3.94;57.35;95721.41;5105485;28;20058;-77
2022/01/22 00:59:01;;;;;;;7.88;4.07;;;;;;;-4.14;56.73;95718.91;5088123;28;20495;-77
2022/01/22 01:01:28;;;;;;;6.75;4.20;;;;;;;-3.98;56.51;95715.47;5106864;28;20474;-77
2022/01/22 01:03:53;;;;;;;6.07;3.50;;;;;;;-4.03;56.18;95717.50;5104972;28;20407;-77
2022/01/22 01:06:19;;;;;;;10.48;4.28;;;;;;;-4.07;56.14;95719.44;5105204;28;20454;-77
2022/01/22 01:08:44;;;;;;;7.70;4.30;;;;;;;-4.06;56.16;95710.63;5071054;28;20405;-77
2022/01/22 01:11:12;;;;;;;6.53;3.38;;;;;;;-3.98;55.45;95711.09;5088494;28;20405;-77
2022/01/22 01:13:43;;;;;;;5.20;3.33;;;;;;;-3.99;55.91;95716.41;5088692;28;20051;-76
2022/01/22 01:16:19;;;;;;;10.18;3.47;;;;;;;-3.90;55.27;95704.63;5106364;28;20043;-76
2022/01/22 01:32:35;;;;;;;5.10;2.72;;;;;;;-4.02;54.31;95685.13;5105529;28;20096;-77
2022/01/22 01:35:05;;;;;;;5.43;2.53;;;;;;;-4.02;54.76;95686.00;5089203;28;20077;-77
2022/01/22 01:37:30;;;;;;;5.13;3.00;;;;;;;-4.16;55.36;95681.44;5106442;28;20063;-77
2022/01/22 01:40:00;;;;;;;6.15;2.88;;;;;;;-4.19;55.40;95676.38;5106304;28;20027;-77
2022/01/22 01:42:41;;;;;;;6.85;3.33;;;;;;;-4.25;55.28;95679.31;5105731;28;20540;-77
2022/01/22 01:45:07;;;;;;;7.65;3.60;;;;;;;-4.21;55.23;95683.50;5090183;28;20027;-77
2022/01/22 01:47:33;;;;;;;4.32;3.30;;;;;;;-4.19;55.17;95686.03;5087467;28;20108;-77
2022/01/22 01:49:59;;;;;;;5.55;3.20;;;;;;;-4.17;55.35;95681.53;5071620;28;20024;-77
2022/01/22 01:52:41;;;;;;;7.63;3.70;;;;;;;-4.20;55.52;95679.94;5105853;28;20039;-78
2022/01/22 01:55:14;;;;;;;7.30;3.13;;;;;;;-4.27;55.87;95675.94;5105443;28;20034;-76
2022/01/22 01:57:40;;;;;;;;;;;;;;;-4.36;55.99;95678.13;5090951;28;20043;-77
2022/01/22 02:00:25;;;;;;;5.75;3.17;;;;;;;-4.43;56.76;95681.13;5108530;28;19911;-77
2022/01/22 02:02:52;;;;;;;7.50;3.03;;;;;;;-4.40;56.59;95679.19;5109826;28;20036;-77
2022/01/22 02:05:20;;;;;;;7.80;4.00;;;;;;;-4.28;55.53;95684.72;5091461;28;20058;-78
2022/01/22 02:07:45;;;;;;;9.32;4.22;;;;;;;-4.27;55.15;95676.78;5109002;28;20034;-78
2022/01/22 02:10:20;;;;;;;6.18;3.15;;;;;;;-4.30;55.33;95682.19;5108590;28;20020;-77
2022/01/22 02:13:38;;;;;;;11.10;3.75;;;;;;;-4.25;55.43;95681.94;5092505;28;20420;-77
2022/01/22 02:23:49;;;;;;;8.60;4.05;;;;;;;-4.57;55.39;95666.09;5094494;28;20107;-77
2022/01/22 02:26:15;;;;;;;7.10;3.60;;;;;;;-4.51;55.56;95668.41;5109283;28;20024;-77
2022/01/22 02:28:40;;;;;;;7.70;3.45;;;;;;;-4.64;55.80;95663.81;5108143;28;20577;-77
2022/01/22 02:36:23;;;;;;;6.25;2.78;;;;;;;-4.38;55.21;95651.16;5092100;28;20036;-77
2022/01/22 02:38:58;;;;;;;7.32;3.15;;;;;;;-4.25;55.15;95656.59;5107941;28;20523;-77
2022/01/22 02:41:25;;;;;;;6.38;3.22;;;;;;;-4.29;55.15;95656.84;5108014;28;20104;-77
2022/01/22 02:43:52;;;;;;;9.10;4.55;;;;;;;-4.26;54.71;95646.19;5107521;28;20024;-77
2022/01/22 02:46:20;;;;;;;9.73;4.00;;;;;;;-4.19;54.46;95646.72;5109736;28;20059;-77
2022/01/22 02:48:45;;;;;;;11.27;4.75;;;;;;;-4.40;54.41;95647.75;5074026;28;20081;-78
2022/01/22 02:51:11;;;;;;;9.25;3.47;;;;;;;-4.30;54.87;95648.13;5109448;28;20023;-77
2022/01/22 02:53:36;;;;;;;9.35;3.47;;;;;;;-4.41;54.32;95659.16;5109019;28;20031;-77
2022/01/22 02:56:02;;;;;;;12.45;4.15;;;;;;;-4.52;54.13;95662.34;5107670;28;20032;-77
2022/01/22 02:58:27;;;;;;;9.45;3.67;;;;;;;-4.56;54.60;95657.34;5107644;28;20031;-77
2022/01/22 03:00:53;;;;;;;9.52;4.40;;;;;;;-4.53;54.67;95659.81;5107354;28;20099;-77
2022/01/22 03:03:18;;;;;;;8.18;3.60;;;;;;;-4.69;54.55;95651.88;5109151;28;20481;-77
2022/01/22 03:05:43;;;;;;;11.82;4.43;;;;;;;-4.73;54.86;95651.19;5106906;28;20027;-77
2022/01/22 03:08:10;;;;;;;8.35;3.60;;;;;;;-4.76;55.17;95651.34;5090691;28;20032;-76
2022/01/22 03:10:37;;;;;;;8.52;3.40;;;;;;;-4.82;55.00;95641.19;5108501;28;20034;-77
2022/01/22 03:15:59;;;;;;;6.47;3.22;;;;;;;-5.03;55.08;95649.19;5107447;28;20724;-76
2022/01/22 03:29:04;;;;;;;6.10;3.13;;;;;;;-5.35;55.69;95624.53;5108419;28;20109;-76
2022/01/22 03:31:30;;;;;;;11.35;3.65;;;;;;;-5.26;55.50;95614.53;5108052;28;20039;-77
2022/01/22 03:33:56;;;;;;;7.75;3.22;;;;;;;-5.33;55.38;95603.53;5090326;28;20027;-78
2022/01/22 03:36:21;;;;;;;5.85;2.92;;;;;;;-5.33;55.11;95603.53;5106825;28;20038;-78
2022/01/22 03:38:47;;;;;;;7.22;3.13;;;;;;;-5.28;55.25;95604.16;5108236;28;20523;-76
2022/01/22 03:41:13;;;;;;;7.15;3.42;;;;;;;-5.23;55.01;95606.53;5089782;28;20107;-75
2022/01/22 03:43:41;;;;;;;7.72;3.53;;;;;;;-5.15;55.14;95606.16;5106590;28;20408;-76
2022/01/22 03:46:06;;;;;;;6.57;3.33;;;;;;;-5.17;55.03;95611.47;5106978;28;20046;-77
2022/01/22 03:48:32;;;;;;;9.25;4.15;;;;;;;-5.28;55.25;95604.16;5106330;28;20459;-77
2022/01/22 03:50:57;;;;;;;7.25;3.53;;;;;;;-5.27;54.39;95600.59;5106662;28;20031;-77
2022/01/22 03:53:23;;;;;;;11.18;3.58;;;;;;;-5.32;54.27;95589.56;5107848;28;20030;-76
2022/01/22 03:56:01;;;;;;;7.05;3.40;;;;;;;-5.35;54.28;95594.91;5108124;28;20026;-76
2022/01/22 03:58:27;;;;;;;5.18;2.88;;;;;;;-5.39;54.64;95591.63;5106951;28;20107;-76
2022/01/22 04:01:06;;;;;;;9.98;4.18;;;;;;;-5.35;54.43;95603.59;5107512;28;20051;-76
2022/01/22 04:03:33;;;;;;;7.75;3.65;;;;;;;-5.54;54.60;95608.03;5092204;28;20080;-76
2022/01/22 04:08:30;;;;;;;7.80;3.67;;;;;;;-5.56;55.51;95610.72;5107120;28;20023;-77
2022/01/22 04:10:56;;;;;;;6.78;3.55;;;;;;;-5.49;54.65;95616.50;5107427;28;20026;-77
2022/01/22 04:13:28;;;;;;;11.07;4.25;;;;;;;-5.54;54.55;95614.09;5110382;28;20088;-77
2022/01/22 04:15:54;;;;;;;7.95;4.00;;;;;;;-5.41;54.16;95611.75;5106384;28;20447;-77
2022/01/22 04:29:15;;;;;;;5.38;2.95;;;;;;;-5.65;54.48;95606.78;5107549;28;20093;-77
2022/01/22 04:31:41;;;;;;;10.15;3.20;;;;;;;-5.81;55.24;95595.34;5107527;28;20040;-76
2022/01/22 04:34:06;;;;;;;8.35;3.88;;;;;;;-5.93;55.95;95594.19;5105861;28;20027;-77
2022/01/22 04:36:31;;;;;;;8.90;4.40;;;;;;;-5.95;55.91;95595.09;5105304;28;20465;-77
2022/01/22 04:38:57;;;;;;;11.93;4.72;;;;;;;-6.01;56.80;95600.59;5106027;28;20023;-77
2022/01/22 04:41:22;;;;;;;11.88;4.03;;;;;;;-5.89;56.77;95596.59;5105550;28;20039;-77
2022/01/22 04:43:50;;;;;;;7.75;3.20;;;;;;;-5.75;56.36;95597.69;5105807;28;20032;-77
2022/01/22 04:56:52;;;;;;;5.68;3.30;;;;;;;-5.67;57.09;95579.88;5105738;28;20123;-77
2022/01/22 04:59:18;;;;;;;7.50;3.40;;;;;;;-5.66;57.19;95573.75;5088466;28;20023;-77
2022/01/22 05:01:43;;;;;;;8.75;4.03;;;;;;;-5.60;56.59;95591.75;5106585;28;20098;-76
2022/01/22 05:04:08;;;;;;;7.38;4.20;;;;;;;-5.56;56.49;95588.97;5106897;28;20016;-75
2022/01/22 05:06:34;;;;;;;8.45;4.20;;;;;;;-5.72;57.04;95587.06;5105007;28;20402;-77
2022/01/22 05:08:59;;;;;;;7.15;3.72;;;;;;;-5.73;57.11;95582.78;5071698;28;20091;-78
2022/01/22 05:11:25;;;;;;;5.90;3.20;;;;;;;-5.67;57.73;95571.22;5104986;28;20024;-77
2022/01/22 05:13:51;;;;;;;8.15;3.65;;;;;;;-5.77;59.01;95579.47;5105594;28;20036;-78
2022/01/22 05:16:17;;;;;;;6.18;3.50;;;;;;;-5.71;60.39;95570.50;5105068;28;20490;-78
2022/01/22 05:18:55;;;;;;;7.97;3.97;;;;;;;-5.60;60.31;95567.38;5104940;28;20033;-77
2022/01/22 05:21:21;;;;;;;9.27;3.78;;;;;;;-5.44;60.64;95567.47;5074677;28;20035;-78
2022/01/22 05:23:48;;;;;;;7.78;3.55;;;;;;;-5.27;59.84;95573.63;5104970;28;20023;-78
2022/01/22 05:26:52;;;;;;;6.93;3.40;;;;;;;-5.28;60.16;95566.69;5105137;28;20663;-77
2022/01/22 05:39:21;;;;;;;8.00;4.30;;;;;;;-5.35;61.92;95571.38;5109460;28;20038;-78
2022/01/22 05:41:46;;;;;;;10.45;4.28;;;;;;;-5.28;62.10;95578.00;5092158;28;20421;-77
2022/01/22 05:44:12;;;;;;;9.05;3.80;;;;;;;-5.29;62.57;95571.09;5110747;28;20027;-77
2022/01/22 05:46:37;;;;;;;7.97;3.58;;;;;;;-5.24;62.16;95578.72;5109223;28;20023;-77
2022/01/22 05:49:03;;;;;;;10.45;3.90;;;;;;;-5.23;61.94;95575.16;5108797;28;20019;-77
2022/01/22 05:51:29;;;;;;;8.65;4.43;;;;;;;-5.28;62.81;95569.31;5110067;28;20030;-78
2022/01/22 05:59:39;;;;;;;10.25;3.50;;;;;;;-5.28;63.45;95579.75;5109055;28;20046;-77
2022/01/22 06:02:15;;;;;;;7.93;3.25;;;;;;;-5.27;63.73;95571.84;5108634;28;20027;-77
2022/01/22 06:04:40;;;;;;;4.88;3.17;;;;;;;-5.46;64.87;95561.44;5108879;28;20089;-77
2022/01/22 06:07:06;;;;;;;12.65;5.38;;;;;;;-5.37;64.51;95568.00;5091477;28;20020;-77
2022/01/22 06:09:33;;;;;;;6.90;4.18;;;;;;;-5.27;64.69;95568.41;5110058;28;20031;-76
2022/01/22 06:12:16;;;;;;;8.73;5.45;;;;;;;-5.24;64.66;95560.41;5092042;28;20043;-77
2022/01/22 06:14:42;;;;;;;13.95;6.40;;;;;;;-5.26;65.31;95564.84;5094143;28;20031;-77
2022/01/22 06:17:07;;;;;;;10.48;4.45;;;;;;;-5.18;65.62;95560.09;5091720;28;20390;-77
2022/01/22 06:19:33;;;;;;;8.45;4.07;;;;;;;-5.26;65.22;95554.41;5109203;28;20073;-78
2022/01/22 06:21:58;;;;;;;8.93;4.82;;;;;;;-5.15;65.07;95553.84;5093016;28;20032;-78
2022/01/22 06:24:24;;;;;;;6.38;4.10;;;;;;;-5.06;64.42;95560.41;5107779;28;20023;-78
2022/01/22 06:26:49;;;;;;;10.75;5.05;;;;;;;-5.05;64.35;95568.16;5091602;28;20405;-77
2022/01/22 06:29:15;;;;;;;9.88;4.70;;;;;;;-5.00;64.10;95567.94;5090901;28;20037;-77
2022/01/22 06:31:40;;;;;;;9.93;4.78;;;;;;;-4.98;63.33;95573.94;5108277;28;20031;-76
2022/01/22 06:34:06;;;;;;;9.27;4.88;;;;;;;-4.99;63.37;95567.84;5091322;28;20100;-77
2022/01/22 06:36:31;;;;;;;13.35;5.18;;;;;;;-4.98;63.50;95558.25;5109259;28;20024;-76
2022/01/22 06:39:09;;;;;;;9.73;4.78;;;;;;;-4.92;63.31;95547.47;5110565;28;20031;-77
2022/01/22 06:41:46;;;;;;;10.43;4.72;;;;;;;-4.86;62.92;95548.91;5093258;28;20332;-77
2022/01/22 06:44:12;;;;;;;8.65;4.35;;;;;;;-4.73;61.99;95539.50;5113757;28;20467;-77
2022/01/22 06:46:37;;;;;;;7.40;4.22;;;;;;;-4.72;61.93;95533.31;5109787;28;20031;-79
2022/01/22 06:49:03;;;;;;;9.88;4.65;;;;;;;-4.57;61.33;95535.22;5109212;28;20027;-79
2022/01/22 06:51:28;;;;;;;7.55;4.55;;;;;;;-4.51;60.98;95534.88;5090821;28;20516;-78
2022/01/22 06:53:54;;;;;;;8.23;5.22;;;;;;;-4.60;61.37;95529.22;5107539;28;20030;-78
2022/01/22 06:56:21;;;;;;;8.85;5.05;;;;;;;-4.74;61.02;95529.09;5091008;28;20080;-78
2022/01/22 06:58:49;;;;;;;9.68;4.60;;;;;;;-4.53;60.78;95527.09;5107039;28;20524;-78
2022/01/22 07:01:15;;;;;;;8.95;4.45;;;;;;;-4.37;60.53;95531.53;5107963;28;20041;-78
2022/01/22 07:03:41;;;;;;;6.60;4.30;;;;;;;-4.23;60.38;95530.78;5106854;28;20490;-78
2022/01/22 07:06:06;;;;;;;10.93;4.30;;;;;;;-4.21;59.57;95526.31;5090904;28;20458;-79
2022/01/22 07:08:31;;;;;;;10.45;4.28;;;;;;;-3.98;58.66;95521.56;5107163;28;20028;-78
2022/01/22 07:10:57;;;;;;;6.75;4.00;;;;;;;-3.70;58.04;95524.41;5108785;28;20020;-77
2022/01/22 07:13:22;;;;;;;8.02;3.90;;;;;;;-3.47;57.00;95531.81;5109059;27;20031;-76
2022/01/22 07:15:48;;;;;;;6.80;3.60;;;;;;;-3.36;56.53;95530.34;5108020;28;20020;-79
2022/01/22 07:18:14;;;;;;;7.47;2.83;;;;;;;-3.15;55.81;95538.75;5107508;28;20027;-77
2022/01/22 07:20:44;;;;;;;4.50;2.83;;;;;;;-2.92;55.45;95523.44;5106784;28;20024;-77
2022/01/22 07:26:01;;;;;;;6.75;3.25;;;;;;;-2.75;55.26;95532.06;5065229;28;20466;-77
2022/01/22 07:28:27;;;;;;;7.85;2.92;;;;;;;-2.91;55.78;95527.75;5090014;28;20027;-77
2022/01/22 07:30:52;;;;;;;5.63;3.38;;;;;;;-2.82;56.62;95521.09;5107183;28;20081;-77
2022/01/22 07:33:20;;;;;;;6.45;3.65;;;;;;;-2.77;56.78;95519.03;5090037;28;20108;-77
2022/01/22 07:35:45;;;;;;;7.68;4.15;;;;;;;-2.61;56.27;95513.69;5107063;28;20028;-78
2022/01/22 07:38:11;;;;;;;7.38;4.35;;;;;;;-2.67;55.94;95518.47;5107277;28;20035;-78
2022/01/22 07:40:36;;;;;;;7.72;4.05;;;;;;;-2.67;57.01;95519.31;5108807;28;20486;-77
2022/01/22 07:43:02;;;;;;;10.60;4.00;;;;;;;-2.66;57.14;95507.03;5106276;28;20079;-77
2022/01/22 07:45:27;;;;;;;6.93;3.90;;;;;;;-2.56;56.82;95508.16;5107332;28;20035;-77
2022/01/22 07:47:53;;;;;;;8.43;4.75;;;;;;;-2.28;56.37;95505.59;5108167;28;20023;-78
2022/01/22 07:50:18;;;;;;;9.73;5.28;;;;;;;-2.26;56.27;95514.25;5089414;28;20110;-77
2022/01/22 07:52:44;;;;;;;7.82;4.57;;;;;;;-2.22;55.63;95515.72;5089547;28;20024;-77
2022/01/22 07:55:13;;;;;;;6.03;3.17;;;;;;;-2.29;55.54;95512.63;5105090;28;20047;-78
2022/01/22 07:57:38;;;;;;;8.38;4.15;;;;;;;-2.30;56.12;95510.09;5106789;28;20413;-78
2022/01/22 08:00:06;;;;;;;5.43;3.50;;;;;;;-2.16;55.68;95510.09;5106128;28;20031;-77
2022/01/22 08:02:31;;;;;;;4.90;3.03;;;;;;;-2.14;56.46;95505.59;5090134;28;20066;-77
2022/01/22 08:04:56;;;;;;;7.53;3.58;;;;;;;-2.05;55.94;95508.56;5089684;28;20023;-78
2022/01/22 08:07:22;;;;;;;4.68;3.25;;;;;;;-2.11;55.47;95494.03;5106199;28;20465;-78
2022/01/22 08:09:48;;;;;;;10.40;4.28;;;;;;;-1.99;55.11;95502.91;5089351;28;20419;-77
2022/01/22 08:12:13;;;;;;;8.80;4.60;;;;;;;-1.88;55.10;95499.59;5106361;28;20043;-77
2022/01/22 08:14:39;;;;;;;7.00;3.50;;;;;;;-1.68;54.58;95498.34;5107922;28;20447;-78
2022/01/22 08:17:04;;;;;;;8.20;3.75;;;;;;;-1.50;53.91;95493.63;5105665;28;20081;-77
2022/01/22 08:19:30;;;;;;;9.38;4.47;;;;;;;-1.31;53.83;95492.44;5107765;28;20059;-77
2022/01/22 08:21:55;;;;;;;7.70;3.72;;;;;;;-1.20;53.26;95488.22;5105866;28;20076;-78
2022/01/22 08:24:25;;;;;;;7.55;3.53;;;;;;;-0.98;51.51;95482.34;5106081;28;20035;-76
2022/01/22 08:27:06;;;;;;;5.03;3.10;;;;;;;-0.72;51.96;95481.50;5106240;28;20035;-78
2022/01/22 08:29:31;;;;;;;8.88;4.20;;;;;;;-0.65;51.74;95477.50;5105895;28;20032;-76
2022/01/22 08:37:29;;;;;;;5.10;2.63;;;;;;;-0.31;48.96;95483.06;5106163;28;20038;-79
2022/01/22 08:39:54;;;;;;;7.63;3.38;;;;;;;-0.36;49.17;95479.06;5089145;28;20027;-76
2022/01/22 08:42:20;;;;;;;7.70;3.45;;;;;;;-0.36;49.29;95481.69;5106749;28;20486;-77
2022/01/22 08:44:46;;;;;;;6.45;3.47;;;;;;;-0.33;49.23;95484.97;5072282;28;20128;-77
2022/01/22 08:47:12;;;;;;;11.18;3.40;;;;;;;-0.34;49.92;95479.78;5105196;28;20027;-78
2022/01/22 08:49:38;;;;;;;5.90;3.20;;;;;;;-0.32;49.94;95476.09;5105981;28;20085;-78
2022/01/22 08:52:09;;;;;;;5.25;3.17;;;;;;;-0.31;50.88;95474.31;5088152;28;20042;-78
2022/01/22 08:54:34;;;;;;;8.40;3.50;;;;;;;-0.20;50.81;95470.91;5107271;28;20560;-76
2022/01/22 08:57:00;;;;;;;4.00;2.63;;;;;;;-0.26;49.52;95482.75;5106849;28;20023;-78
2022/01/22 08:59:25;;;;;;;5.78;2.97;;;;;;;-0.24;49.92;95486.09;5106460;28;20027;-78
2022/01/22 09:01:51;;;;;;;5.15;3.05;;;;;;;-0.39;50.55;95475.66;5105701;28;20027;-77
2022/01/22 09:04:16;;;;;;;4.53;2.63;;;;;;;-0.73;50.31;95485.94;5104859;28;20031;-78
2022/01/22 09:06:42;;;;;;;5.20;2.75;;;;;;;-0.70;50.27;95475.19;5107545;28;20115;-77
2022/01/22 09:09:12;;;;;;;4.50;2.58;;;;;;;-0.66;50.84;95492.47;5104722;28;20550;-78
2022/01/22 09:11:38;;;;;;;6.05;3.05;;;;;;;-0.88;50.01;95483.41;5105994;28;20039;-77
2022/01/22 09:14:05;;;;;;;5.65;3.42;;;;;;;-0.91;49.87;95480.16;5088405;28;20027;-77
2022/01/22 09:16:30;;;;;;;4.85;2.70;;;;;;;-0.87;49.79;95477.19;5106573;28;20517;-77
2022/01/22 09:19:00;;;;;;;6.82;3.75;;;;;;;-0.70;50.15;95474.34;5106830;28;20047;-76
2022/01/22 09:21:26;;;;;;;11.55;4.07;;;;;;;-0.66;49.39;95460.84;5088940;28;20505;-77
2022/01/22 09:23:51;;;;;;;5.43;3.63;;;;;;;-0.64;48.95;95461.59;5088526;28;20020;-78
2022/01/22 09:26:18;;;;;;;4.50;3.10;;;;;;;-0.49;48.71;95466.75;5104999;28;20028;-78
2022/01/22 09:28:46;;;;;;;8.45;3.53;;;;;;;-0.51;48.77;95471.28;5105935;28;20030;-78
2022/01/22 09:31:12;;;;;;;4.47;3.15;;;;;;;-0.55;49.50;95456.63;5106770;28;20027;-77
2022/01/22 09:33:39;;;;;;;5.55;3.50;;;;;;;-0.53;49.01;95460.84;5105281;28;20031;-77
2022/01/22 09:36:04;;;;;;;5.07;3.20;;;;;;;-0.36;48.99;95456.19;5106753;28;20050;-76
2022/01/22 09:38:30;;;;;;;3.53;2.60;;;;;;;-0.40;48.10;95454.69;5104823;28;20417;-77
2022/01/22 09:40:55;;;;;;;5.10;3.42;;;;;;;-0.35;48.08;95441.19;5105441;28;20088;-77
2022/01/22 09:43:21;;;;;;;7.53;3.63;;;;;;;-0.58;48.96;95438.41;5087581;28;20055;-77
2022/01/22 09:45:49;;;;;;;5.95;3.25;;;;;;;-0.44;49.06;95434.78;5106529;28;20096;-77
2022/01/22 09:48:14;;;;;;;6.65;3.60;;;;;;;-0.69;49.22;95429.47;5104226;28;20023;-78
2022/01/22 09:50:39;;;;;;;6.65;3.45;;;;;;;-0.63;49.00;95421.13;5106633;28;20401;-77
2022/01/22 09:53:05;;;;;;;5.78;3.20;;;;;;;-0.65;48.98;95415.13;5104931;28;20051;-78
2022/01/22 09:55:30;;;;;;;4.22;3.13;;;;;;;-0.53;48.47;95417.84;5104930;28;20015;-78
2022/01/22 09:57:58;;;;;;;4.25;3.10;;;;;;;-0.54;48.84;95414.38;5105073;28;20425;-76
2022/01/22 10:00:25;;;;;;;8.23;3.47;;;;;;;-0.52;48.73;95404.56;5105679;28;20497;-78
2022/01/22 10:02:52;;;;;;;4.70;3.28;;;;;;;-0.61;49.49;95404.38;5089278;28;20023;-78
2022/01/22 10:05:33;;;;;;;5.40;3.85;;;;;;;-0.68;49.35;95402.19;5105670;28;20421;-77
2022/01/22 10:08:22;;;;;;;7.03;3.20;;;;;;;-0.77;49.58;95397.53;5088336;28;20028;-77
2022/01/22 10:10:47;;;;;;;5.18;3.28;;;;;;;-0.93;50.30;95401.25;5105373;28;20454;-77
2022/01/22 10:13:13;;;;;;;7.75;3.15;;;;;;;-1.14;51.75;95403.56;5087989;28;20466;-77
2022/01/22 10:15:39;;;;;;;5.07;2.90;;;;;;;-1.20;52.84;95402.22;5071251;28;20024;-77
2022/01/22 10:18:05;;;;;;;3.85;2.88;;;;;;;-1.12;53.49;95397.28;5071024;28;20035;-77
2022/01/22 10:20:30;;;;;;;6.60;3.70;;;;;;;-1.16;52.78;95394.97;5092030;28;20028;-77
2022/01/22 10:22:58;;;;;;;5.28;3.38;;;;;;;-1.16;52.63;95401.06;5108378;28;20489;-78
2022/01/22 10:25:30;;;;;;;5.32;3.05;;;;;;;-1.17;52.65;95391.47;5108584;28;20119;-77
2022/01/22 10:27:56;;;;;;;3.72;2.55;;;;;;;-1.22;51.95;95382.19;5108585;28;20126;-77
2022/01/22 10:30:22;;;;;;;3.70;2.75;;;;;;;-1.35;51.80;95388.31;5108410;28;20043;-77
2022/01/22 10:33:02;;;;;;;4.60;2.92;;;;;;;-1.29;52.21;95384.44;5091735;28;20474;-78
2022/01/22 10:35:28;;;;;;;6.70;2.90;;;;;;;-1.28;51.44;95386.09;5108104;28;20031;-77
2022/01/22 10:37:59;;;;;;;3.63;2.88;;;;;;;-1.29;51.34;95379.16;5091479;28;20040;-78
2022/01/22 10:40:28;;;;;;;5.70;2.97;;;;;;;-1.23;50.21;95362.94;5094847;28;20397;-77
2022/01/22 10:43:22;;;;;;;7.25;3.35;;;;;;;-1.51;50.38;95352.53;5110616;28;20108;-77
2022/01/22 10:46:13;;;;;;;4.90;2.92;;;;;;;-1.41;50.64;95360.63;5102154;28;20153;-77
2022/01/22 10:48:41;;;;;;;6.63;3.85;;;;;;;-1.32;50.72;95355.69;5110711;28;20035;-78
2022/01/22 10:51:15;;;;;;;7.13;3.97;;;;;;;-1.13;50.25;95363.97;5110234;28;20031;-77
2022/01/22 10:53:49;;;;;;;7.70;4.35;;;;;;;-1.11;50.34;95361.25;5107601;28;20027;-78
2022/01/22 10:56:19;;;;;;;8.43;4.50;;;;;;;-1.01;50.29;95359.66;5073631;28;20031;-78
2022/01/22 10:58:53;;;;;;;6.80;3.92;;;;;;;-1.08;50.33;95354.94;5091407;28;20571;-78
2022/01/22 11:01:20;;;;;;;7.57;3.92;;;;;;;-1.22;51.28;95351.47;5108694;28;20521;-78
2022/01/22 11:03:45;;;;;;;5.60;3.90;;;;;;;-1.41;51.29;95359.78;5107660;28;20406;-77
2022/01/22 11:06:26;;;;;;;7.38;3.65;;;;;;;-1.21;50.98;95350.50;5073671;28;20024;-78
2022/01/22 11:08:53;;;;;;;7.10;3.47;;;;;;;-1.10;51.03;95349.78;5090757;28;20102;-78
2022/01/22 11:11:19;;;;;;;6.78;3.53;;;;;;;-1.05;50.94;95342.38;5090838;28;20119;-78
2022/01/22 11:13:44;;;;;;;7.05;3.60;;;;;;;-1.02;51.42;95344.84;5108737;28;20510;-77
2022/01/22 11:16:10;;;;;;;5.00;3.53;;;;;;;-0.91;50.89;95343.22;5090785;28;20034;-77
2022/01/22 11:18:35;;;;;;;6.55;3.22;;;;;;;-0.85;51.20;95332.25;5107167;28;20047;-78
2022/01/22 11:21:01;;;;;;;5.80;3.35;;;;;;;-0.78;50.42;95324.75;5090538;28;20030;-77
2022/01/22 11:23:26;;;;;;;4.45;3.20;;;;;;;-0.79;49.48;95341.53;5090219;28;20124;-78
2022/01/22 11:25:52;;;;;;;5.82;3.03;;;;;;;-0.88;50.20;95330.69;5090403;28;20033;-77
2022/01/22 11:28:17;;;;;;;7.40;3.28;;;;;;;-0.88;50.56;95325.41;5090080;28;20024;-78
2022/01/22 11:30:45;;;;;;;5.53;3.47;;;;;;;-0.76;50.66;95328.13;5089644;28;20040;-79
2022/01/22 11:33:11;;;;;;;6.43;3.33;;;;;;;-0.77;49.81;95327.28;5090455;28;20077;-76
2022/01/22 11:36:01;;;;;;;6.78;3.72;;;;;;;-0.80;50.05;95311.69;5106595;28;20201;-78
2022/01/22 11:38:37;;;;;;;8.10;3.25;;;;;;;-0.83;49.87;95306.66;5090751;28;20092;-77
2022/01/22 11:41:06;;;;;;;15.00;3.60;;;;;;;-1.00;51.04;95318.41;5106533;28;20513;-77
2022/01/22 11:46:35;;;;;;;6.55;3.25;;;;;;;-1.35;53.02;95317.25;5051788;28;20046;-77
2022/01/22 11:49:09;;;;;;;5.85;3.10;;;;;;;-1.51;54.45;95312.22;5106126;28;20092;-76
2022/01/22 11:51:35;;;;;;;6.10;2.88;;;;;;;-1.62;55.40;95313.81;5108440;28;20097;-78
2022/01/22 11:54:00;;;;;;;4.53;2.65;;;;;;;-1.66;56.24;95322.00;5107642;28;20024;-76
2022/01/22 11:56:46;;;;;;;5.50;2.97;;;;;;;-1.79;57.06;95324.63;5089795;28;20119;-78
2022/01/22 11:59:11;;;;;;;5.53;2.63;;;;;;;-1.87;57.36;95312.81;5106837;28;20031;-77
2022/01/22 12:01:52;;;;;;;7.57;3.42;;;;;;;-1.97;58.07;95319.66;5106171;28;20031;-77
2022/01/22 12:04:24;;;;;;;4.70;3.35;;;;;;;-2.05;58.56;95317.56;5106748;28;20028;-79
2022/01/22 12:07:02;;;;;;;12.20;3.85;;;;;;;-2.05;59.56;95320.19;5106053;28;20039;-77
2022/01/22 12:15:17;;;;;;;7.72;4.00;;;;;;;-2.01;60.21;95300.63;5106831;27;20088;-77
2022/01/22 12:23:10;;;;;;;10.75;4.43;;;;;;;-1.88;60.45;95299.78;5107174;28;20603;-77
2022/01/22 12:25:35;;;;;;;6.78;3.55;;;;;;;-1.91;61.00;95305.25;5073279;28;20476;-77
2022/01/22 12:28:01;;;;;;;7.40;3.45;;;;;;;-1.96;61.02;95308.19;5106550;28;20036;-78
2022/01/22 12:30:36;;;;;;;4.45;2.78;;;;;;;-2.03;62.11;95310.38;5106311;28;20027;-76
2022/01/22 12:33:02;;;;;;;5.55;3.30;;;;;;;-1.96;61.88;95305.56;5106959;28;20066;-80
2022/01/22 12:35:35;;;;;;;5.20;3.17;;;;;;;-1.93;63.07;95294.00;5106145;28;20106;-78
2022/01/22 12:38:19;;;;;;;8.15;3.63;;;;;;;-1.88;63.64;95300.63;5088871;28;20077;-77
2022/01/22 12:40:46;;;;;;;5.90;3.67;;;;;;;-1.75;62.38;95305.06;5106749;28;20059;-79
2022/01/22 12:43:20;;;;;;;6.13;3.25;;;;;;;-1.67;62.71;95286.13;5105377;28;20126;-78
2022/01/22 12:45:45;;;;;;;5.45;3.50;;;;;;;-1.45;61.85;95298.63;5107015;28;20037;-80
2022/01/22 12:48:13;;;;;;;9.77;4.07;;;;;;;-1.33;61.20;95293.47;5088691;28;20020;-79
2022/01/22 12:50:38;;;;;;;5.53;3.40;;;;;;;-1.23;60.06;95291.03;5089068;28;20041;-79
2022/01/22 12:53:09;;;;;;;6.82;3.90;;;;;;;-1.23;59.36;95286.63;5088129;28;20107;-83
2022/01/22 12:58:31;;;;;;;5.65;3.72;;;;;;;-1.23;58.72;95277.88;5105224;28;20058;-77
2022/01/22 13:01:10;;;;;;;5.18;3.05;;;;;;;-1.22;58.30;95269.88;5089752;28;20118;-78
2022/01/22 13:03:37;;;;;;;5.68;3.40;;;;;;;-1.18;57.62;95266.09;5089129;28;20044;-79
2022/01/22 13:06:03;;;;;;;5.55;3.30;;;;;;;-1.10;56.66;95264.69;5106788;28;20019;-81
2022/01/22 13:08:30;;;;;;;5.72;3.10;;;;;;;-1.06;56.52;95260.88;5105832;28;20027;-79
2022/01/22 13:10:58;;;;;;;5.22;2.97;;;;;;;-1.06;56.45;95259.09;5105040;28;20032;-77
2022/01/22 13:13:24;;;;;;;6.18;3.80;;;;;;;-0.95;56.24;95254.88;5105244;28;20037;-78
2022/01/22 13:16:07;;;;;;;6.28;2.90;;;;;;;-0.97;56.16;95252.34;5106375;28;20028;-78
2022/01/22 13:19:05;;;;;;;6.40;2.90;;;;;;;-1.02;56.50;95251.84;5071794;28;20055;-79
2022/01/22 13:21:31;;;;;;;6.15;2.92;;;;;;;-1.19;56.65;95247.78;5049990;28;20431;-79
2022/01/22 13:24:10;;;;;;;4.70;2.72;;;;;;;-1.16;56.11;95244.94;5087803;28;20062;-78